Time;durP1;ratioP1;P1;durP2;ratioP2;P2;SDS_P1;SDS_P2;PMS_P1;PMS_P2;Temp;Humidity;BMP_temperature;BMP_pressure;BME280_temperature;BME280_humidity;BME280_pressure;Samples;Min_cycle;Max_cycle;Signal;HPM_P1;HPM_P2
2021/09/05 00:00:53;;;;;;;;;31.50;25.75;;;;;21.54;76.03;101500.53;4920959;28;45434;-81
2021/09/05 00:03:18;;;;;;;;;26.75;25.75;;;;;21.54;75.50;101492.50;4922246;28;46049;-82
2021/09/05 00:05:44;;;;;;;;;24.25;23.00;;;;;21.53;75.77;101491.66;4920661;28;45462;-82
2021/09/05 00:08:09;;;;;;;;;29.75;25.50;;;;;21.51;75.61;101485.56;4922050;28;45345;-82
2021/09/05 00:10:34;;;;;;;;;24.50;22.00;;;;;21.52;75.69;101487.28;4913279;28;45485;-83
2021/09/05 00:13:00;;;;;;;;;24.75;24.75;;;;;21.46;75.69;101476.97;4913680;28;46383;-82
2021/09/05 00:15:25;;;;;;;;;27.25;23.50;;;;;21.46;76.10;101471.63;4916450;28;45316;-82
2021/09/05 00:17:50;;;;;;;;;32.00;27.25;;;;;21.46;76.37;101479.66;4922030;28;45308;-80
2021/09/05 00:20:16;;;;;;;;;28.50;25.00;;;;;21.45;76.02;101481.50;4914578;28;45405;-81
2021/09/05 00:22:41;;;;;;;;;30.50;24.75;;;;;21.42;76.42;101472.81;4919700;28;47359;-76
2021/09/05 00:25:07;;;;;;;;;30.75;22.75;;;;;21.46;76.51;101482.34;4921728;28;45264;-80
2021/09/05 00:27:33;;;;;;;;;28.50;23.00;;;;;21.43;76.34;101487.91;4922069;28;45283;-80
2021/09/05 00:29:58;;;;;;;;;18.00;17.00;;;;;21.42;76.21;101486.19;4903462;28;46712;-81
2021/09/05 00:32:23;;;;;;;;;23.00;23.00;;;;;21.40;76.64;101486.31;4921484;28;45322;-80
2021/09/05 00:34:49;;;;;;;;;25.50;23.75;;;;;21.39;76.06;101487.25;4921545;28;45229;-81
2021/09/05 00:37:14;;;;;;;;;32.00;24.50;;;;;21.36;76.58;101490.97;4921981;28;45302;-80
2021/09/05 00:39:39;;;;;;;;;31.00;26.50;;;;;21.36;76.10;101490.97;4920241;28;45961;-80
2021/09/05 00:42:05;;;;;;;;;25.00;24.00;;;;;21.35;76.84;101493.78;4923339;28;46515;-81
2021/09/05 00:44:30;;;;;;;;;24.50;23.25;;;;;21.36;76.27;101503.50;4925200;28;45312;-81
2021/09/05 00:46:56;;;;;;;;;26.25;26.00;;;;;21.34;76.24;101500.06;4925058;28;45248;-81
2021/09/05 00:49:21;;;;;;;;;30.75;27.25;;;;;21.33;76.46;101506.38;4924725;28;45430;-81
2021/09/05 00:51:47;;;;;;;;;33.00;28.75;;;;;21.31;76.47;101508.31;4918777;28;46162;-82
2021/09/05 00:54:16;;;;;;;;;34.50;30.00;;;;;21.32;76.58;101507.34;4910032;28;45846;-82
2021/09/05 00:56:44;;;;;;;;;31.50;28.75;;;;;21.32;76.86;101502.84;4925372;28;45324;-82
2021/09/05 00:59:13;;;;;;;;;32.00;31.25;;;;;21.30;76.19;101499.44;4912433;28;45528;-82
2021/09/05 01:01:39;;;;;;;;;32.50;30.25;;;;;21.28;76.68;101501.34;4919797;28;45471;-82
2021/09/05 01:04:05;;;;;;;;;33.00;30.75;;;;;21.27;76.56;101488.94;4924883;28;45315;-82
2021/09/05 01:06:33;;;;;;;;;31.50;29.50;;;;;21.28;76.65;101489.78;4924679;28;45481;-82
2021/09/05 01:09:01;;;;;;;;;31.00;27.50;;;;;21.29;76.39;101494.16;4907517;28;46096;-83
2021/09/05 01:11:26;;;;;;;;;30.00;27.00;;;;;21.28;76.35;101488.00;4924133;28;45262;-84
2021/09/05 01:13:52;;;;;;;;;41.50;32.75;;;;;21.25;76.56;101490.84;4922078;28;45427;-84
2021/09/05 01:16:35;;;;;;;;;41.00;34.00;;;;;21.25;76.63;101490.84;4924471;28;45315;-84
2021/09/05 01:19:10;;;;;;;;;33.00;30.00;;;;;21.24;76.88;101497.16;4904639;28;47277;-84
2021/09/05 01:21:37;;;;;;;;;34.25;31.50;;;;;21.20;76.72;101496.50;4924519;28;46459;-83
2021/09/05 01:24:04;;;;;;;;;34.50;32.00;;;;;21.21;76.96;101497.38;4924433;28;45324;-83
2021/09/05 01:26:32;;;;;;;;;37.50;32.25;;;;;21.19;76.83;101505.47;4924682;28;45374;-82
2021/09/05 01:28:58;;;;;;;;;33.75;30.00;;;;;21.19;76.48;101501.94;4914848;28;45383;-82
2021/09/05 01:31:26;;;;;;;;;30.00;29.00;;;;;21.19;76.63;101501.94;4924092;28;45382;-82
2021/09/05 01:33:52;;;;;;;;;35.25;32.50;;;;;21.20;76.34;101503.66;4924133;28;45470;-82
2021/09/05 01:36:18;;;;;;;;;37.25;32.50;;;;;21.19;76.48;101500.13;4924365;28;45287;-75
2021/09/05 01:38:43;;;;;;;;;30.00;27.75;;;;;21.18;76.48;101502.91;4912815;28;45334;-76
2021/09/05 01:41:10;;;;;;;;;36.25;31.25;;;;;21.17;76.13;101499.38;4906593;28;46951;-82
2021/09/05 01:43:36;;;;;;;;;33.25;32.00;;;;;21.16;76.75;101496.81;4894589;28;45755;-82
2021/09/05 01:46:02;;;;;;;;;39.50;33.75;;;;;21.16;76.83;101508.38;4924086;28;45329;-84
2021/09/05 01:48:27;;;;;;;;;33.75;32.00;;;;;21.15;76.67;101506.66;4916395;28;45886;-84
2021/09/05 01:50:52;;;;;;;;;31.00;28.50;;;;;21.14;76.52;101505.78;4922935;28;45301;-93
2021/09/05 01:53:18;;;;;;;;;34.50;32.75;;;;;21.11;76.63;101505.16;4924439;28;45247;-88
2021/09/05 01:55:43;;;;;;;;;33.25;31.75;;;;;21.07;76.40;101507.16;4923031;28;45348;-83
2021/09/05 01:58:08;;;;;;;;;39.25;32.00;;;;;21.05;76.48;101509.06;4921917;28;45273;-82
2021/09/05 02:00:35;;;;;;;;;31.00;30.00;;;;;21.04;76.53;101514.53;4901648;28;47120;-83
2021/09/05 02:03:00;;;;;;;;;36.50;31.00;;;;;21.01;76.64;101519.09;4902509;28;46035;-84
2021/09/05 02:05:25;;;;;;;;;32.25;31.00;;;;;20.98;76.67;101515.75;4923824;28;45234;-85
2021/09/05 02:07:51;;;;;;;;;33.25;31.50;;;;;20.96;76.54;101521.19;4910861;28;45518;-84
2021/09/05 02:10:16;;;;;;;;;37.25;33.50;;;;;20.93;76.81;101516.06;4914168;28;45403;-85
2021/09/05 02:12:41;;;;;;;;;33.25;30.50;;;;;20.94;77.01;101514.25;4921134;28;45431;-81
2021/09/05 02:15:07;;;;;;;;;37.25;33.00;;;;;20.96;76.57;101517.66;4906712;28;45451;-81
2021/09/05 02:17:33;;;;;;;;;33.75;31.00;;;;;20.97;76.89;101514.03;4923341;28;45473;-80
2021/09/05 02:19:58;;;;;;;;;33.25;31.75;;;;;20.96;77.16;101517.66;4916211;28;46384;-81
2021/09/05 02:22:23;;;;;;;;;40.75;31.25;;;;;20.97;76.77;101519.38;4923571;28;45312;-81
2021/09/05 02:24:49;;;;;;;;;34.50;31.00;;;;;20.97;76.70;101514.03;4923899;28;45312;-81
2021/09/05 02:27:14;;;;;;;;;33.75;31.00;;;;;20.99;76.84;101515.63;4923208;28;45490;-82
2021/09/05 02:29:39;;;;;;;;;31.00;29.75;;;;;20.97;77.04;101514.03;4916326;28;46257;-81
2021/09/05 02:32:05;;;;;;;;;34.00;31.25;;;;;20.97;76.92;101514.03;4910538;28;45296;-81
2021/09/05 02:34:31;;;;;;;;;34.75;31.75;;;;;20.96;77.17;101517.66;4923403;28;45402;-81
2021/09/05 02:36:56;;;;;;;;;35.25;31.00;;;;;20.96;76.78;101520.34;4897485;28;46978;-81
2021/09/05 02:39:22;;;;;;;;;28.00;25.00;;;;;20.95;76.69;101522.16;4923379;28;45225;-83
2021/09/05 02:41:47;;;;;;;;;32.25;30.00;;;;;20.92;76.86;101515.19;4905933;28;45272;-83
2021/09/05 02:44:13;;;;;;;;;34.00;30.50;;;;;20.92;76.99;101515.19;4906333;28;45431;-83
2021/09/05 02:46:38;;;;;;;;;39.00;32.75;;;;;20.90;77.05;101517.09;4915834;28;45395;-81
2021/09/05 02:49:03;;;;;;;;;33.25;30.00;;;;;20.94;76.98;101519.59;4905893;28;48448;-81
2021/09/05 02:51:29;;;;;;;;;30.75;29.50;;;;;20.94;77.03;101514.25;4921847;28;45271;-81
2021/09/05 02:53:54;;;;;;;;;31.25;29.50;;;;;20.94;77.25;101509.72;4906082;28;45225;-80
2021/09/05 02:56:20;;;;;;;;;36.00;30.50;;;;;20.95;76.65;101518.63;4902265;28;47147;-80
2021/09/05 02:58:45;;;;;;;;;32.75;30.75;;;;;20.92;77.12;101514.31;4923021;28;45431;-84
2021/09/05 03:01:10;;;;;;;;;30.50;27.00;;;;;20.92;77.11;101517.00;4920945;28;45225;-82
2021/09/05 03:03:36;;;;;;;;;34.75;31.50;;;;;20.92;76.94;101523.19;4921486;28;45165;-81
2021/09/05 03:06:01;;;;;;;;;33.50;31.25;;;;;20.89;76.95;101515.38;4915976;28;45208;-85
2021/09/05 03:08:26;;;;;;;;;33.50;29.25;;;;;20.90;76.76;101518.91;4921425;28;46584;-77
2021/09/05 03:10:52;;;;;;;;;35.00;30.75;;;;;20.89;77.27;101522.56;4905732;28;45232;-77
2021/09/05 03:13:17;;;;;;;;;34.50;30.00;;;;;20.87;77.03;101519.97;4922075;28;45399;-77
2021/09/05 03:15:43;;;;;;;;;37.75;32.50;;;;;20.88;76.83;101521.69;4918576;28;45557;-77
2021/09/05 03:18:08;;;;;;;;;31.00;27.25;;;;;20.85;76.82;101515.69;4920725;28;45556;-77
2021/09/05 03:20:34;;;;;;;;;31.50;31.00;;;;;20.86;77.10;101512.94;4922755;28;45316;-78
2021/09/05 03:23:00;;;;;;;;;29.25;25.00;;;;;20.85;77.15;101519.22;4922766;28;45486;-78
2021/09/05 03:25:25;;;;;;;;;36.00;29.50;;;;;20.82;77.18;101508.72;4918501;28;45505;-78
2021/09/05 03:27:51;;;;;;;;;31.00;26.00;;;;;20.83;77.31;101515.78;4922602;28;46690;-79
2021/09/05 03:30:16;;;;;;;;;22.25;21.75;;;;;20.79;77.47;101509.78;4914593;28;46058;-78
2021/09/05 03:32:42;;;;;;;;;29.75;27.25;;;;;20.78;77.34;101505.41;4916698;28;45236;-81
2021/09/05 03:35:09;;;;;;;;;25.25;24.75;;;;;20.78;77.33;101515.22;4922573;28;45586;-81
2021/09/05 03:37:34;;;;;;;;;33.25;27.50;;;;;20.80;77.17;101510.63;4917426;28;45268;-81
2021/09/05 03:39:59;;;;;;;;;30.25;28.00;;;;;20.75;77.61;101502.06;4920955;28;45156;-81
2021/09/05 03:42:25;;;;;;;;;28.50;25.25;;;;;20.78;77.09;101504.53;4922360;28;45688;-81
2021/09/05 03:44:50;;;;;;;;;31.25;30.25;;;;;20.77;77.41;101506.34;4922114;28;45161;-81
2021/09/05 03:47:16;;;;;;;;;29.00;27.00;;;;;20.75;77.11;101499.38;4917406;28;46294;-82
2021/09/05 03:49:41;;;;;;;;;34.00;29.25;;;;;20.74;77.26;101508.38;4922128;28;45405;-82
2021/09/05 03:52:07;;;;;;;;;28.25;25.25;;;;;20.73;77.28;101499.50;4922631;28;45429;-82
2021/09/05 03:54:32;;;;;;;;;28.25;27.25;;;;;20.72;77.36;101495.09;4922098;28;45318;-82
2021/09/05 03:56:57;;;;;;;;;27.75;27.75;;;;;20.72;77.33;101495.09;4917839;28;45338;-82
2021/09/05 03:59:23;;;;;;;;;31.25;30.00;;;;;20.76;77.20;101509.13;4919966;28;45440;-81
2021/09/05 04:01:48;;;;;;;;;32.00;27.75;;;;;20.73;77.07;101506.66;4920132;28;45654;-81
2021/09/05 04:04:14;;;;;;;;;28.00;27.25;;;;;20.71;77.15;101505.91;4904751;28;46861;-81
2021/09/05 04:06:39;;;;;;;;;30.00;24.75;;;;;20.68;77.30;101505.13;4915913;28;45406;-82
2021/09/05 04:09:09;;;;;;;;;29.50;25.25;;;;;20.72;77.27;101499.59;4922093;28;45364;-84
2021/09/05 04:11:35;;;;;;;;;28.00;25.00;;;;;20.69;77.56;101512.19;4920499;28;45487;-84
2021/09/05 04:14:01;;;;;;;;;26.50;26.00;;;;;20.71;77.10;101509.44;4920363;28;45401;-80
2021/09/05 04:16:26;;;;;;;;;29.25;25.50;;;;;20.71;77.48;101514.78;4921637;28;46501;-80
2021/09/05 04:18:52;;;;;;;;;24.25;24.25;;;;;20.71;77.48;101514.78;4921121;28;45248;-78
2021/09/05 04:21:17;;;;;;;;;28.00;27.75;;;;;20.71;77.15;101517.44;4922116;28;45549;-81
2021/09/05 04:23:42;;;;;;;;;30.00;26.50;;;;;20.69;77.00;101517.53;4921966;28;45304;-85
2021/09/05 04:26:08;;;;;;;;;29.25;24.75;;;;;20.66;77.38;101511.53;4920871;28;46552;-76
2021/09/05 04:28:34;;;;;;;;;30.75;26.00;;;;;20.68;77.45;101518.50;4921873;28;45280;-76
2021/09/05 04:30:59;;;;;;;;;28.50;26.75;;;;;20.66;77.54;101511.53;4909372;28;45318;-79
2021/09/05 04:33:24;;;;;;;;;28.00;25.75;;;;;20.66;77.40;101524.88;4921869;28;45245;-79
2021/09/05 04:35:50;;;;;;;;;27.75;27.25;;;;;20.62;77.66;101524.22;4912179;28;47986;-78
2021/09/05 04:38:15;;;;;;;;;25.50;23.00;;;;;20.62;77.04;101520.72;4904698;28;45876;-78
2021/09/05 04:40:40;;;;;;;;;27.75;26.75;;;;;20.59;77.31;101521.75;4921854;28;45714;-78
2021/09/05 04:43:06;;;;;;;;;29.25;26.50;;;;;20.61;77.34;101529.66;4919285;28;45857;-78
2021/09/05 04:45:31;;;;;;;;;26.75;23.00;;;;;20.58;77.30;101522.69;4915763;28;46993;-78
2021/09/05 04:47:56;;;;;;;;;27.25;24.50;;;;;20.57;77.32;101531.66;4904563;28;45250;-79
2021/09/05 04:50:22;;;;;;;;;25.25;24.00;;;;;20.57;77.38;101539.66;4921715;28;45153;-80
2021/09/05 04:52:47;;;;;;;;;24.25;22.50;;;;;20.56;77.73;101535.28;4920439;28;46872;-81
2021/09/05 04:55:12;;;;;;;;;26.00;23.25;;;;;20.52;77.20;101537.28;4889338;29;47220;-81
2021/09/05 04:57:38;;;;;;;;;24.25;22.50;;;;;20.53;77.44;101538.16;4920075;28;45478;-80
2021/09/05 05:00:04;;;;;;;;;26.00;26.00;;;;;20.52;77.23;101541.78;4918704;28;45239;-80
2021/09/05 05:02:29;;;;;;;;;22.00;22.00;;;;;20.50;77.15;101539.19;4902135;28;47213;-79
2021/09/05 05:04:54;;;;;;;;;25.25;22.75;;;;;20.51;77.26;101537.41;4913145;28;46380;-77
2021/09/05 05:07:20;;;;;;;;;24.75;21.75;;;;;20.50;77.49;101549.00;4904135;28;45236;-78
2021/09/05 05:09:45;;;;;;;;;25.50;23.50;;;;;20.50;77.14;101549.00;4908948;28;45221;-79
2021/09/05 05:12:12;;;;;;;;;24.50;21.25;;;;;20.50;77.50;101555.22;4914404;28;45524;-78
2021/09/05 05:14:38;;;;;;;;;25.25;22.75;;;;;20.49;77.59;101555.31;4921043;28;46419;-79
2021/09/05 05:17:03;;;;;;;;;20.75;20.75;;;;;20.48;77.07;101566.94;4921308;28;45328;-79
2021/09/05 05:19:29;;;;;;;;;25.25;22.00;;;;;20.44;77.13;101555.63;4921273;28;45322;-80
2021/09/05 05:21:54;;;;;;;;;25.25;21.50;;;;;20.43;76.96;101569.91;4917840;28;45747;-80
2021/09/05 05:24:20;;;;;;;;;25.50;24.25;;;;;20.41;77.02;101567.34;4901379;28;47072;-81
2021/09/05 05:26:45;;;;;;;;;28.00;26.25;;;;;20.40;77.20;101578.09;4923721;28;45329;-83
2021/09/05 05:29:10;;;;;;;;;25.00;23.50;;;;;20.38;77.13;101583.53;4921698;28;45394;-82
2021/09/05 05:31:36;;;;;;;;;21.50;20.25;;;;;20.33;77.45;101574.97;4922325;28;45303;-80
2021/09/05 05:34:01;;;;;;;;;25.75;24.50;;;;;20.32;77.13;101578.59;4923864;28;46266;-79
2021/09/05 05:36:26;;;;;;;;;24.00;22.50;;;;;20.34;77.45;101576.69;4924516;28;45305;-83
2021/09/05 05:38:52;;;;;;;;;26.50;22.50;;;;;20.31;77.41;101577.72;4911517;28;45249;-83
2021/09/05 05:41:19;;;;;;;;;29.25;21.50;;;;;20.32;77.08;101578.59;4915893;28;45586;-82
2021/09/05 05:43:44;;;;;;;;;25.75;21.25;;;;;20.32;77.71;101574.09;4920725;28;47394;-81
2021/09/05 05:46:10;;;;;;;;;24.25;21.50;;;;;20.33;77.72;101572.28;4924135;28;45212;-81
2021/09/05 05:48:35;;;;;;;;;27.25;23.50;;;;;20.38;77.26;101588.88;4924218;28;45471;-81
2021/09/05 05:51:01;;;;;;;;;19.50;18.75;;;;;20.38;77.39;101582.69;4918097;28;45464;-81
2021/09/05 05:53:27;;;;;;;;;26.50;24.75;;;;;20.40;77.47;101589.66;4921544;28;46357;-84
2021/09/05 05:55:52;;;;;;;;;29.25;21.50;;;;;20.41;77.68;101587.84;4924258;28;45470;-85
2021/09/05 05:58:17;;;;;;;;;23.50;20.50;;;;;20.40;77.32;101591.44;4924112;28;45366;-86
2021/09/05 06:00:43;;;;;;;;;24.50;21.00;;;;;20.45;77.40;101597.38;4907859;28;45489;-81
2021/09/05 06:03:09;;;;;;;;;23.00;21.25;;;;;20.43;77.09;101586.78;4919183;28;45704;-81
2021/09/05 06:05:35;;;;;;;;;25.75;24.50;;;;;20.41;77.29;101591.38;4923652;28;45328;-84
2021/09/05 06:08:01;;;;;;;;;26.75;21.75;;;;;20.44;77.53;101591.19;4923892;28;45347;-76
2021/09/05 06:10:27;;;;;;;;;21.75;20.00;;;;;20.46;77.60;101597.28;4922724;28;45344;-76
2021/09/05 06:12:52;;;;;;;;;23.75;21.25;;;;;20.49;77.77;101606.06;4896805;28;46886;-81
2021/09/05 06:15:18;;;;;;;;;25.75;24.25;;;;;20.51;77.25;101609.47;4923704;28;45333;-80
2021/09/05 06:17:43;;;;;;;;;22.75;20.50;;;;;20.52;77.69;101605.88;4922392;28;45244;-80
2021/09/05 06:20:09;;;;;;;;;19.25;18.00;;;;;20.54;78.11;101610.16;4923771;28;45272;-80
2021/09/05 06:22:35;;;;;;;;;21.75;21.75;;;;;20.58;77.63;101611.69;4910817;28;46424;-81
2021/09/05 06:25:00;;;;;;;;;27.00;26.50;;;;;20.61;77.49;101613.31;4906464;28;45686;-81
2021/09/05 06:27:26;;;;;;;;;18.50;18.00;;;;;20.65;77.42;101609.47;4922452;28;45411;-81
2021/09/05 06:29:51;;;;;;;;;23.75;22.50;;;;;20.68;77.53;101611.97;4904893;28;46384;-78
2021/09/05 06:32:17;;;;;;;;;20.00;19.75;;;;;20.75;77.12;101616.91;4919458;28;47202;-82
2021/09/05 06:34:42;;;;;;;;;21.00;16.50;;;;;20.78;76.68;101627.41;4921707;28;45435;-82
2021/09/05 06:37:07;;;;;;;;;18.00;17.25;;;;;20.82;76.85;101630.78;4923161;28;45605;-82
2021/09/05 06:39:33;;;;;;;;;17.50;16.50;;;;;20.89;77.12;101637.44;4922079;28;45334;-82
2021/09/05 06:41:59;;;;;;;;;19.75;17.25;;;;;20.97;76.66;101639.59;4920547;28;45392;-82
2021/09/05 06:44:25;;;;;;;;;19.75;18.25;;;;;21.02;75.91;101634.88;4923262;28;45371;-85
2021/09/05 06:46:50;;;;;;;;;18.25;18.25;;;;;21.05;76.47;101639.16;4923385;28;45336;-82
2021/09/05 06:49:16;;;;;;;;;19.75;18.75;;;;;21.08;75.46;101641.63;4923115;28;45455;-82
2021/09/05 06:51:41;;;;;;;;;21.25;18.75;;;;;21.11;75.42;101641.44;4922699;28;46182;-84
2021/09/05 06:54:06;;;;;;;;;19.75;19.75;;;;;21.14;74.90;101642.09;4903986;28;45423;-78
2021/09/05 06:56:32;;;;;;;;;18.00;18.00;;;;;21.19;75.24;101648.94;4922935;28;45273;-75
2021/09/05 06:58:57;;;;;;;;;19.00;16.75;;;;;21.22;75.16;101654.13;4923218;28;45461;-74
2021/09/05 07:01:22;;;;;;;;;19.25;19.25;;;;;21.23;75.25;101654.03;4922595;28;46367;-76
2021/09/05 07:03:48;;;;;;;;;16.00;16.00;;;;;21.24;75.62;101657.53;4905786;28;45305;-79
2021/09/05 07:06:13;;;;;;;;;19.75;18.50;;;;;21.25;75.65;101660.13;4921340;28;45231;-81
2021/09/05 07:08:39;;;;;;;;;23.50;18.50;;;;;21.27;75.35;101662.69;4922747;28;45546;-74
2021/09/05 07:11:04;;;;;;;;;21.00;19.75;;;;;21.29;75.23;101668.81;4916559;28;45373;-74
2021/09/05 07:13:29;;;;;;;;;20.25;18.50;;;;;21.29;75.04;101667.94;4913790;28;45254;-74
2021/09/05 07:15:55;;;;;;;;;22.00;18.75;;;;;21.28;75.18;101669.78;4919153;28;45507;-74
2021/09/05 07:18:26;;;;;;;;;18.25;16.75;;;;;21.29;75.31;101668.81;4915156;28;45426;-74
2021/09/05 07:20:51;;;;;;;;;17.75;17.25;;;;;21.29;75.73;101684.84;4905221;28;47342;-74
2021/09/05 07:23:17;;;;;;;;;16.50;14.75;;;;;21.31;75.30;101685.59;4922411;28;45268;-74
2021/09/05 07:25:42;;;;;;;;;19.75;17.50;;;;;21.33;74.33;101675.69;4920863;28;45228;-75
2021/09/05 07:28:08;;;;;;;;;21.25;18.25;;;;;21.34;74.63;101677.38;4922837;28;45226;-74
2021/09/05 07:30:33;;;;;;;;;24.50;20.75;;;;;21.38;74.29;101678.06;4918937;28;46267;-75
2021/09/05 07:32:59;;;;;;;;;19.50;18.25;;;;;21.38;74.64;101674.53;4919766;28;45556;-75
2021/09/05 07:35:24;;;;;;;;;21.50;18.25;;;;;21.39;74.74;101678.91;4903603;28;45296;-75
2021/09/05 07:37:50;;;;;;;;;15.75;15.75;;;;;21.43;74.65;101675.94;4919910;28;46419;-75
2021/09/05 07:40:16;;;;;;;;;18.75;17.25;;;;;21.44;73.87;101684.81;4904444;28;47266;-73
2021/09/05 07:42:42;;;;;;;;;18.75;17.50;;;;;21.41;74.31;101683.19;4922303;28;45586;-73
2021/09/05 07:45:09;;;;;;;;;19.25;16.00;;;;;21.42;73.79;101686.72;4914828;28;45394;-73
2021/09/05 07:47:34;;;;;;;;;14.75;14.25;;;;;21.44;73.48;101687.47;4920076;28;45628;-73
2021/09/05 07:49:59;;;;;;;;;18.25;16.25;;;;;21.45;73.89;101691.88;4915390;28;46551;-73
2021/09/05 07:52:25;;;;;;;;;18.50;17.00;;;;;21.46;73.66;101694.44;4920679;28;45343;-73
2021/09/05 07:54:50;;;;;;;;;18.00;16.50;;;;;21.50;73.79;101696.94;4915834;28;45784;-74
2021/09/05 07:57:16;;;;;;;;;14.75;13.25;;;;;21.49;73.26;101690.72;4899753;28;46003;-74
2021/09/05 07:59:41;;;;;;;;;14.00;14.00;;;;;21.54;73.09;101699.31;4899101;28;47936;-74
2021/09/05 08:02:06;;;;;;;;;16.50;16.50;;;;;21.54;73.41;101693.97;4917757;28;45303;-73
2021/09/05 08:04:32;;;;;;;;;16.50;15.75;;;;;21.56;73.13;101702.72;4920674;28;45246;-73
2021/09/05 08:06:57;;;;;;;;;14.00;14.00;;;;;21.58;73.05;101705.34;4919445;28;45577;-73
2021/09/05 08:09:23;;;;;;;;;17.25;15.50;;;;;21.58;72.52;101702.66;4919737;28;46743;-73
2021/09/05 08:11:48;;;;;;;;;15.75;15.75;;;;;21.58;72.85;101703.50;4915450;28;45269;-73
2021/09/05 08:14:13;;;;;;;;;19.50;15.00;;;;;21.62;72.50;101716.66;4902754;28;45690;-73
2021/09/05 08:16:39;;;;;;;;;18.25;15.00;;;;;21.65;72.40;101716.47;4919978;28;45552;-73
2021/09/05 08:19:05;;;;;;;;;15.00;14.75;;;;;21.65;71.69;101714.66;4920221;28;45599;-73
2021/09/05 08:21:31;;;;;;;;;17.25;14.00;;;;;21.66;71.75;101720.84;4922073;28;45249;-73
2021/09/05 08:23:56;;;;;;;;;15.75;15.00;;;;;21.67;71.51;101720.78;4922198;28;45538;-73
2021/09/05 08:26:23;;;;;;;;;15.25;12.25;;;;;21.70;71.56;101725.91;4920226;28;45401;-73
2021/09/05 08:28:50;;;;;;;;;18.50;15.25;;;;;21.73;71.59;101732.88;4901266;28;47581;-74
2021/09/05 08:31:15;;;;;;;;;14.75;14.75;;;;;21.77;71.96;101733.53;4906182;28;45554;-74
2021/09/05 08:33:41;;;;;;;;;14.00;13.75;;;;;21.78;70.92;101738.78;4919154;28;46480;-76
2021/09/05 08:36:06;;;;;;;;;18.50;15.50;;;;;21.77;70.53;101730.88;4918570;28;45419;-76
2021/09/05 08:38:32;;;;;;;;;13.00;12.25;;;;;21.79;70.82;101740.50;4918427;28;45320;-74
2021/09/05 08:40:58;;;;;;;;;15.50;13.75;;;;;21.79;70.34;101729.81;4916144;28;45719;-75
2021/09/05 08:43:23;;;;;;;;;13.75;13.75;;;;;21.84;70.47;101734.00;4914417;28;45608;-74
2021/09/05 08:45:49;;;;;;;;;13.25;13.25;;;;;21.88;70.57;101733.72;4912427;28;45244;-75
2021/09/05 08:48:19;;;;;;;;;14.75;14.75;;;;;21.91;70.21;101733.53;4902467;29;46139;-76
2021/09/05 08:50:47;;;;;;;;;16.00;13.00;;;;;21.95;69.96;101734.19;4902745;29;45398;-72
2021/09/05 08:53:13;;;;;;;;;17.75;16.00;;;;;21.99;70.36;101738.38;4902528;29;45325;-72
2021/09/05 08:55:38;;;;;;;;;16.25;14.75;;;;;22.03;69.84;101736.34;4919737;28;45409;-73
2021/09/05 08:58:04;;;;;;;;;13.50;12.75;;;;;22.06;69.81;101736.16;4921434;28;46284;-73
2021/09/05 09:00:32;;;;;;;;;18.50;17.00;;;;;22.10;70.41;101726.09;4919381;28;45152;-73
2021/09/05 09:02:59;;;;;;;;;18.75;16.50;;;;;22.09;69.26;101724.38;4907732;28;45378;-73
2021/09/05 09:05:30;;;;;;;;;15.00;14.50;;;;;22.13;69.39;101733.91;4900264;28;46114;-73
2021/09/05 09:08:02;;;;;;;;;17.25;16.25;;;;;22.16;69.77;101744.41;4923357;28;47225;-73
2021/09/05 09:10:28;;;;;;;;;18.25;16.00;;;;;22.18;69.73;101738.94;4922759;28;45366;-73
2021/09/05 09:12:54;;;;;;;;;14.50;13.50;;;;;22.21;69.36;101738.75;4903194;28;45289;-73
2021/09/05 09:15:31;;;;;;;;;16.00;15.50;;;;;22.23;69.18;101744.84;4924224;28;45547;-72
2021/09/05 09:18:02;;;;;;;;;15.50;14.75;;;;;22.25;69.23;101738.44;4904386;28;47489;-72
2021/09/05 09:20:42;;;;;;;;;16.25;16.25;;;;;22.32;69.53;101740.72;4920477;28;45388;-73
2021/09/05 09:23:12;;;;;;;;;17.50;16.00;;;;;22.35;69.19;101741.34;4916304;28;45349;-72
2021/09/05 09:25:38;;;;;;;;;16.75;15.75;;;;;22.40;68.74;101745.56;4906558;28;46115;-72
2021/09/05 09:28:23;;;;;;;;;18.50;16.00;;;;;22.46;68.85;101743.31;4906969;28;47431;-72
2021/09/05 09:30:49;;;;;;;;;19.25;16.50;;;;;22.47;68.46;101739.66;4922169;28;45636;-72
2021/09/05 09:33:24;;;;;;;;;17.50;17.00;;;;;22.54;68.34;101739.25;4923244;28;45410;-73
2021/09/05 09:35:59;;;;;;;;;15.25;13.50;;;;;22.57;68.35;101744.41;4922790;28;45492;-72
2021/09/05 09:38:25;;;;;;;;;16.25;15.50;;;;;22.61;68.18;101745.91;4924000;28;45364;-72
2021/09/05 09:41:03;;;;;;;;;15.50;14.50;;;;;22.64;68.35;101744.84;4907122;28;45212;-72
2021/09/05 09:43:28;;;;;;;;;15.25;14.25;;;;;22.66;68.44;101746.44;4924276;28;45341;-72
2021/09/05 09:46:12;;;;;;;;;18.75;16.50;;;;;22.68;68.09;101739.16;4914064;28;45774;-72
2021/09/05 09:48:43;;;;;;;;;18.00;16.25;;;;;22.73;67.87;101743.38;4922129;28;46993;-72
2021/09/05 09:51:10;;;;;;;;;17.00;16.25;;;;;22.75;67.69;101741.44;4906139;28;45238;-72
2021/09/05 09:53:38;;;;;;;;;16.50;16.00;;;;;22.77;68.05;101740.34;4903735;28;45300;-72
2021/09/05 09:56:05;;;;;;;;;17.25;16.25;;;;;22.80;67.93;101744.66;4922677;28;46518;-72
2021/09/05 09:58:30;;;;;;;;;17.50;14.00;;;;;22.81;67.38;101738.34;4923593;28;45628;-72
2021/09/05 10:00:56;;;;;;;;;17.00;14.50;;;;;22.87;67.73;101740.56;4898979;28;45634;-72
2021/09/05 10:03:24;;;;;;;;;18.25;14.25;;;;;22.91;67.58;101747.47;4920406;28;45342;-72
2021/09/05 10:05:50;;;;;;;;;16.50;13.75;;;;;22.96;67.63;101730.19;4920448;28;45458;-72
2021/09/05 10:08:17;;;;;;;;;16.25;15.50;;;;;23.01;66.95;101741.44;4917186;28;45437;-72
2021/09/05 10:10:45;;;;;;;;;13.75;13.25;;;;;23.04;66.67;101736.69;4919594;28;47388;-72
2021/09/05 10:13:10;;;;;;;;;15.50;13.25;;;;;23.08;66.66;101734.69;4918723;28;45272;-72
2021/09/05 10:15:36;;;;;;;;;17.00;17.00;;;;;23.11;66.18;101731.75;4923376;28;45489;-72
2021/09/05 10:18:02;;;;;;;;;14.25;14.25;;;;;23.16;66.27;101732.28;4906441;28;48512;-72
2021/09/05 10:20:28;;;;;;;;;16.75;15.25;;;;;23.21;66.38;101737.31;4923095;28;45295;-72
2021/09/05 10:22:53;;;;;;;;;16.75;15.25;;;;;23.25;66.17;101735.28;4923926;28;45249;-72
2021/09/05 10:25:19;;;;;;;;;15.50;15.50;;;;;23.26;66.39;101728.97;4912578;28;45421;-72
2021/09/05 10:27:49;;;;;;;;;13.50;13.50;;;;;23.33;66.46;101724.00;4910806;28;46122;-72
2021/09/05 10:30:18;;;;;;;;;12.50;12.50;;;;;23.36;66.57;101723.81;4922856;28;45323;-72
2021/09/05 10:32:48;;;;;;;;;13.75;13.75;;;;;23.42;66.09;101725.16;4923548;28;45202;-72
2021/09/05 10:35:46;;;;;;;;;15.00;14.25;;;;;23.47;65.21;101725.69;4923226;28;45475;-71
2021/09/05 10:38:14;;;;;;;;;15.50;14.50;;;;;23.54;65.60;101726.97;4898551;28;47275;-72
2021/09/05 10:40:52;;;;;;;;;16.75;16.00;;;;;23.60;65.40;101721.19;4921324;28;45767;-72
2021/09/05 10:43:19;;;;;;;;;16.75;14.25;;;;;23.64;65.03;101720.94;4919172;28;45501;-72
2021/09/05 10:45:48;;;;;;;;;16.25;14.25;;;;;23.68;65.67;101717.06;4900563;28;46121;-72
2021/09/05 10:48:34;;;;;;;;;18.00;13.50;;;;;23.75;65.16;101722.84;4917327;28;45484;-72
2021/09/05 10:51:13;;;;;;;;;14.00;14.00;;;;;23.82;65.43;101724.94;4921342;28;45229;-72
2021/09/05 10:53:58;;;;;;;;;15.75;15.00;;;;;23.85;64.40;101718.50;4921672;28;45430;-72
2021/09/05 10:56:25;;;;;;;;;18.50;16.50;;;;;23.90;64.87;101718.16;4918618;28;45293;-71
2021/09/05 10:59:23;;;;;;;;;17.00;15.50;;;;;23.93;64.25;101721.44;4918311;28;45533;-71
2021/09/05 11:01:48;;;;;;;;;19.50;16.75;;;;;23.98;64.73;101718.41;4919643;28;45240;-72
2021/09/05 11:04:14;;;;;;;;;17.00;15.75;;;;;24.05;64.66;101725.03;4921517;28;45479;-72
2021/09/05 11:06:49;;;;;;;;;14.50;14.50;;;;;24.09;64.15;101711.38;4921114;28;45672;-71